Time;durP1;ratioP1;P1;durP2;ratioP2;P2;SDS_P1;SDS_P2;PMS_P1;PMS_P2;Temp;Humidity;BMP_temperature;BMP_pressure;BME280_temperature;BME280_humidity;BME280_pressure;Samples;Min_cycle;Max_cycle;Signal;HPM_P1;HPM_P2
2022/07/29 00:01:48;;;;;;;3.20;3.00;;;11.60;1.00;;;;;;5078065;28;20519;-67
2022/07/29 00:04:14;;;;;;;2.50;2.30;;;11.60;1.00;;;;;;5095636;28;20494;-67
2022/07/29 00:06:40;;;;;;;2.87;2.67;;;11.60;1.00;;;;;;5077836;28;20501;-75
2022/07/29 00:09:06;;;;;;;3.13;2.70;;;11.60;1.00;;;;;;5095879;28;20642;-68
2022/07/29 00:11:32;;;;;;;2.40;2.20;;;11.60;1.00;;;;;;5077445;28;20487;-73
2022/07/29 00:13:58;;;;;;;2.60;2.50;;;11.60;1.00;;;;;;5076506;28;20530;-67
2022/07/29 00:16:24;;;;;;;3.10;2.80;;;11.50;1.00;;;;;;5095874;28;20169;-68
2022/07/29 00:18:49;;;;;;;3.33;2.60;;;11.40;1.00;;;;;;5077860;28;20175;-66
2022/07/29 00:21:15;;;;;;;2.70;2.50;;;11.30;1.00;;;;;;5095797;28;20164;-75
2022/07/29 00:23:41;;;;;;;3.40;3.20;;;11.30;1.00;;;;;;5076817;28;20193;-68
2022/07/29 00:26:07;;;;;;;2.80;2.60;;;11.30;1.00;;;;;;5077577;28;20169;-66
2022/07/29 00:28:33;;;;;;;3.90;3.17;;;11.30;1.00;;;;;;5095001;28;20400;-75
2022/07/29 00:30:59;;;;;;;4.50;2.60;;;11.30;1.00;;;;;;5095686;28;20865;-67
2022/07/29 00:33:24;;;;;;;2.77;2.57;;;11.30;1.00;;;;;;5076546;28;20181;-75
2022/07/29 00:35:50;;;;;;;6.43;3.10;;;11.30;1.00;;;;;;5095471;28;20642;-75
2022/07/29 00:38:18;;;;;;;4.07;2.60;;;11.20;1.00;;;;;;5076132;28;20665;-75
2022/07/29 00:40:45;;;;;;;3.33;3.13;;;11.10;1.00;;;;;;5095302;28;20662;-75
2022/07/29 00:43:12;;;;;;;4.13;2.40;;;11.00;1.00;;;;;;5094645;28;20727;-67
2022/07/29 00:45:38;;;;;;;2.70;2.50;;;11.00;1.00;;;;;;5095194;28;20415;-68
2022/07/29 00:48:04;;;;;;;2.83;2.63;;;11.10;1.00;;;;;;5094574;28;20617;-67
2022/07/29 00:50:31;;;;;;;2.83;2.63;;;11.10;1.00;;;;;;5095247;28;20193;-74
2022/07/29 00:52:58;;;;;;;2.90;2.70;;;11.10;1.00;;;;;;5094505;28;20406;-66
2022/07/29 00:55:23;;;;;;;3.20;3.00;;;11.10;1.00;;;;;;5076862;28;20406;-75
2022/07/29 00:57:50;;;;;;;2.93;2.63;;;11.00;1.00;;;;;;5095009;28;20407;-68
2022/07/29 01:00:20;;;;;;;2.90;2.70;;;11.00;1.00;;;;;;5094852;28;20190;-75
2022/07/29 01:02:50;;;;;;;2.60;2.40;;;11.00;1.00;;;;;;5075947;28;20466;-67
2022/07/29 01:05:18;;;;;;;2.73;2.53;;;11.00;1.00;;;;;;5094797;28;20413;-67
2022/07/29 01:07:45;;;;;;;2.80;2.60;;;11.00;1.00;;;;;;5094244;28;20415;-68
2022/07/29 01:10:14;;;;;;;2.87;2.67;;;11.00;1.00;;;;;;5094807;28;20389;-75
2022/07/29 01:12:40;;;;;;;2.93;2.63;;;11.00;1.00;;;;;;5075896;28;20515;-67
2022/07/29 01:15:08;;;;;;;3.03;2.83;;;11.00;1.00;;;;;;5076432;28;20435;-68
2022/07/29 01:17:33;;;;;;;3.50;2.77;;;11.00;1.00;;;;;;5094692;28;20414;-75
2022/07/29 01:20:14;;;;;;;2.30;2.07;;;11.00;1.00;;;;;;5094464;28;20989;-74
2022/07/29 01:23:01;;;;;;;3.23;2.60;;;10.90;1.00;;;;;;5093762;28;20645;-66
2022/07/29 01:25:49;;;;;;;2.90;2.60;;;10.90;1.00;;;;;;5093773;28;20451;-75
2022/07/29 01:28:30;;;;;;;3.93;2.57;;;10.90;1.00;;;;;;5094362;28;20396;-67
2022/07/29 01:30:57;;;;;;;2.90;2.70;;;10.90;1.00;;;;;;5094540;28;20397;-75
2022/07/29 01:36:14;;;;;;;3.57;2.77;;;10.90;1.00;;;;;;5094587;28;20924;-75
2022/07/29 01:38:42;;;;;;;3.10;2.80;;;10.90;1.00;;;;;;5094139;28;20903;-67
2022/07/29 01:41:16;;;;;;;2.93;2.73;;;10.90;1.00;;;;;;5075906;28;20430;-75
2022/07/29 01:43:49;;;;;;;3.43;2.90;;;10.80;1.00;;;;;;5092863;28;20426;-67
2022/07/29 01:46:27;;;;;;;2.60;2.20;;;10.80;1.00;;;;;;5093943;28;20367;-67
2022/07/29 01:49:09;;;;;;;2.50;2.30;;;10.80;1.00;;;;;;5075837;28;20941;-67
2022/07/29 01:51:44;;;;;;;2.90;2.70;;;10.80;1.00;;;;;;5094264;28;20410;-75
2022/07/29 01:54:28;;;;;;;3.73;3.07;;;10.70;1.00;;;;;;5075141;28;20427;-76
2022/07/29 01:56:56;;;;;;;2.90;2.33;;;10.70;1.00;;;;;;5093949;28;20403;-67
2022/07/29 01:59:23;;;;;;;2.83;2.63;;;10.70;1.00;;;;;;5075726;28;20416;-69
2022/07/29 02:01:53;;;;;;;3.43;2.50;;;10.60;1.00;;;;;;5075127;28;20457;-75
2022/07/29 02:04:20;;;;;;;3.37;3.07;;;10.70;1.00;;;;;;5093157;28;20411;-66
2022/07/29 02:06:49;;;;;;;5.13;2.40;;;10.60;1.00;;;;;;5093633;28;20399;-68
2022/07/29 02:09:15;;;;;;;8.37;2.77;;;10.70;1.00;;;;;;5093600;28;20450;-67
2022/07/29 02:11:48;;;;;;;4.30;2.40;;;10.70;1.00;;;;;;5093756;28;20419;-67
2022/07/29 02:14:15;;;;;;;2.70;2.50;;;10.70;1.00;;;;;;5075019;28;20431;-67
2022/07/29 02:16:43;;;;;;;2.57;2.37;;;10.70;1.00;;;;;;5092803;28;20375;-73
2022/07/29 02:19:10;;;;;;;2.63;2.43;;;10.70;1.00;;;;;;5075604;28;20430;-75
2022/07/29 02:21:36;;;;;;;2.67;2.47;;;10.60;1.00;;;;;;5075679;28;20466;-75
2022/07/29 02:24:03;;;;;;;2.90;2.70;;;10.60;1.00;;;;;;5074464;28;20447;-67
2022/07/29 02:26:32;;;;;;;3.07;2.87;;;10.60;1.00;;;;;;5075564;28;20428;-67
2022/07/29 02:29:00;;;;;;;4.87;2.37;;;10.50;1.00;;;;;;5075411;28;20738;-67
2022/07/29 02:31:32;;;;;;;3.13;2.70;;;10.50;1.00;;;;;;5093438;28;20410;-74
2022/07/29 02:33:59;;;;;;;2.50;2.30;;;10.50;1.00;;;;;;5073836;28;20413;-67
2022/07/29 02:36:26;;;;;;;3.13;2.47;;;10.50;1.00;;;;;;5093230;28;20521;-68
2022/07/29 02:38:57;;;;;;;2.60;2.27;;;10.50;1.00;;;;;;5093244;28;20498;-73
2022/07/29 02:41:33;;;;;;;3.20;2.60;;;10.50;1.00;;;;;;5093229;28;21026;-66
2022/07/29 02:44:06;;;;;;;2.83;2.57;;;10.40;1.00;;;;;;5074598;28;20441;-75
2022/07/29 02:46:35;;;;;;;3.20;2.40;;;10.40;1.00;;;;;;5075261;28;20415;-75
2022/07/29 02:49:15;;;;;;;3.73;2.83;;;10.40;1.00;;;;;;5093037;28;20913;-73
2022/07/29 02:51:44;;;;;;;2.50;2.40;;;10.40;1.00;;;;;;5093141;28;20447;-70
2022/07/29 02:54:15;;;;;;;3.50;3.20;;;10.30;1.00;;;;;;5073920;28;21008;-75
2022/07/29 02:56:44;;;;;;;2.60;2.40;;;10.30;1.00;;;;;;5093022;28;20408;-74
2022/07/29 02:59:13;;;;;;;2.67;2.47;;;10.30;1.00;;;;;;5092890;28;20892;-67
2022/07/29 03:01:42;;;;;;;2.70;2.50;;;10.30;1.00;;;;;;5077035;28;20390;-66
2022/07/29 03:04:10;;;;;;;3.00;2.77;;;10.30;1.00;;;;;;5096754;28;20394;-75
2022/07/29 03:06:37;;;;;;;3.60;2.93;;;10.30;1.00;;;;;;5079108;28;20394;-75
2022/07/29 03:09:04;;;;;;;2.47;2.33;;;10.30;1.00;;;;;;5078962;28;20442;-67
2022/07/29 03:11:30;;;;;;;3.33;2.97;;;10.40;1.00;;;;;;5096558;28;20410;-75
2022/07/29 03:13:56;;;;;;;2.97;2.73;;;10.30;1.00;;;;;;5096308;28;20423;-66
2022/07/29 03:16:23;;;;;;;2.90;2.70;;;10.20;1.00;;;;;;5079238;28;20468;-68
2022/07/29 03:18:50;;;;;;;2.93;2.70;;;10.20;1.00;;;;;;5097063;28;20390;-66
2022/07/29 03:21:16;;;;;;;3.20;2.90;;;10.20;1.00;;;;;;5078601;28;20503;-75
2022/07/29 03:23:47;;;;;;;2.47;2.37;;;10.20;1.00;;;;;;5096201;28;20519;-75
2022/07/29 03:26:13;;;;;;;2.90;2.70;;;10.30;1.00;;;;;;5096759;28;20185;-66
2022/07/29 03:28:39;;;;;;;2.70;2.50;;;10.30;1.00;;;;;;5078444;28;20394;-67
2022/07/29 03:31:05;;;;;;;3.77;2.53;;;10.40;1.00;;;;;;5078465;28;20790;-70
2022/07/29 03:33:30;;;;;;;2.77;2.57;;;10.40;1.00;;;;;;5095972;28;20219;-75
2022/07/29 03:35:58;;;;;;;3.57;3.03;;;10.40;4.90;;;;;;5096557;28;20205;-75
2022/07/29 03:38:27;;;;;;;3.07;2.87;;;10.30;12.30;;;;;;5078367;28;20185;-70
2022/07/29 03:41:03;;;;;;;3.00;2.80;;;10.30;5.40;;;;;;5096793;28;20424;-66
2022/07/29 03:43:34;;;;;;;3.83;3.00;;;10.30;28.00;;;;;;5095315;28;20954;-74
2022/07/29 03:46:01;;;;;;;10.63;2.43;;;10.30;1.00;;;;;;5078603;28;20423;-67
2022/07/29 03:48:30;;;;;;;3.53;2.53;;;10.30;1.00;;;;;;5078206;28;20425;-75
2022/07/29 03:50:56;;;;;;;2.63;2.43;;;10.40;1.00;;;;;;5078138;28;20421;-75
2022/07/29 03:53:22;;;;;;;3.30;2.90;;;10.40;1.00;;;;;;5095573;28;20414;-67
2022/07/29 03:55:53;;;;;;;3.60;2.77;;;10.50;1.00;;;;;;5077995;28;20409;-75
2022/07/29 03:58:19;;;;;;;2.60;2.40;;;10.60;1.00;;;;;;5096315;28;20473;-66
2022/07/29 04:00:46;;;;;;;2.77;2.57;;;10.60;1.00;;;;;;5077641;28;20411;-74
2022/07/29 04:03:12;;;;;;;2.83;2.63;;;10.60;1.00;;;;;;5095443;28;20735;-67
2022/07/29 04:05:38;;;;;;;5.03;2.87;;;10.70;1.00;;;;;;5095930;28;20471;-67
2022/07/29 04:08:04;;;;;;;3.50;3.20;;;10.70;1.00;;;;;;5095997;28;20404;-66
2022/07/29 04:10:30;;;;;;;3.23;2.80;;;10.80;1.00;;;;;;5095878;28;20481;-67
2022/07/29 04:12:56;;;;;;;4.63;2.90;;;10.80;1.00;;;;;;5076800;28;20561;-75
2022/07/29 04:15:22;;;;;;;3.67;3.20;;;10.80;1.00;;;;;;5095756;28;20185;-67
2022/07/29 04:17:47;;;;;;;3.30;3.00;;;10.80;1.00;;;;;;5094976;28;20182;-67
2022/07/29 04:20:13;;;;;;;2.40;2.30;;;10.80;1.00;;;;;;5095832;28;20256;-66
2022/07/29 04:22:40;;;;;;;3.10;2.80;;;10.90;1.00;;;;;;5094965;28;20169;-75
2022/07/29 04:25:06;;;;;;;2.60;2.40;;;11.00;1.00;;;;;;5077405;28;20213;-74
2022/07/29 04:27:32;;;;;;;2.83;2.27;;;11.00;18.40;;;;;;5077728;28;20423;-67
2022/07/29 04:29:58;;;;;;;3.20;2.90;;;11.10;45.80;;;;;;5077330;28;20414;-75
2022/07/29 04:32:25;;;;;;;2.67;2.47;;;11.10;1.00;;;;;;5094966;28;20212;-69
2022/07/29 04:34:53;;;;;;;2.70;2.60;;;11.20;1.00;;;;;;5095491;28;20177;-67
2022/07/29 04:37:19;;;;;;;3.90;3.20;;;11.20;1.00;;;;;;5094948;28;20420;-67
2022/07/29 04:39:48;;;;;;;3.40;2.33;;;11.30;1.00;;;;;;5095208;28;20807;-68
2022/07/29 04:42:17;;;;;;;5.60;2.57;;;11.40;1.00;;;;;;5094741;28;20177;-67
2022/07/29 04:44:45;;;;;;;4.90;2.33;;;11.40;1.00;;;;;;5095211;28;20759;-67
2022/07/29 04:47:10;;;;;;;2.80;2.60;;;11.40;1.00;;;;;;5077672;28;20412;-75
2022/07/29 04:49:39;;;;;;;7.17;2.83;;;11.40;1.00;;;;;;5095290;28;20958;-67
2022/07/29 04:52:06;;;;;;;2.73;2.53;;;11.60;1.00;;;;;;5094918;28;20200;-67
2022/07/29 04:54:32;;;;;;;3.30;2.53;;;11.60;1.00;;;;;;5094605;28;20419;-67
2022/07/29 04:56:57;;;;;;;3.67;2.80;;;11.60;1.00;;;;;;5094677;28;20399;-75
2022/07/29 04:59:24;;;;;;;2.60;2.40;;;11.60;76.90;;;;;;5077111;28;20507;-75
2022/07/29 05:01:50;;;;;;;2.90;2.60;;;11.70;72.50;;;;;;5094927;28;20173;-75
2022/07/29 05:04:16;;;;;;;2.60;2.20;;;11.60;18.30;;;;;;5094257;28;20428;-66
2022/07/29 05:06:41;;;;;;;3.63;3.33;;;11.70;45.60;;;;;;5094891;28;20169;-67
2022/07/29 05:09:07;;;;;;;2.20;2.10;;;11.80;67.30;;;;;;5094790;28;20176;-74
2022/07/29 05:11:33;;;;;;;2.67;2.47;;;11.90;62.00;;;;;;5094923;28;20170;-75
2022/07/29 05:13:58;;;;;;;2.67;2.47;;;12.00;23.00;;;;;;5093951;28;20673;-74
2022/07/29 05:16:24;;;;;;;2.30;2.20;;;12.00;12.70;;;;;;5075977;28;20526;-68
2022/07/29 05:18:49;;;;;;;2.47;2.37;;;12.10;65.10;;;;;;5076520;28;20256;-67
2022/07/29 05:21:15;;;;;;;2.60;2.47;;;12.20;29.50;;;;;;5076736;28;20173;-75
2022/07/29 05:23:41;;;;;;;2.40;2.20;;;12.20;12.70;;;;;;5093176;28;20235;-75
2022/07/29 05:26:06;;;;;;;2.40;2.20;;;12.30;33.10;;;;;;5093192;28;20169;-75
2022/07/29 05:28:35;;;;;;;3.57;2.67;;;12.40;22.70;;;;;;5094472;28;20534;-67
2022/07/29 05:31:01;;;;;;;2.27;2.13;;;12.40;94.00;;;;;;5094487;28;20250;-74
2022/07/29 05:33:27;;;;;;;2.53;2.10;;;12.50;93.80;;;;;;5093053;28;20395;-67
2022/07/29 05:35:52;;;;;;;4.10;2.93;;;12.60;99.90;;;;;;5094390;28;20752;-67
2022/07/29 05:38:28;;;;;;;5.87;2.50;;;12.70;99.90;;;;;;5093066;28;20170;-75
2022/07/29 05:40:57;;;;;;;3.37;3.07;;;12.80;99.90;;;;;;5093014;28;20173;-66
2022/07/29 05:43:23;;;;;;;2.73;2.53;;;12.90;99.90;;;;;;5093476;28;20399;-73
2022/07/29 05:45:52;;;;;;;3.30;2.70;;;13.10;99.90;;;;;;5094164;28;20408;-75
2022/07/29 05:48:18;;;;;;;3.57;3.27;;;13.20;99.90;;;;;;5094005;28;20411;-75
2022/07/29 05:50:43;;;;;;;3.77;3.37;;;13.30;99.90;;;;;;5075448;28;20455;-75
2022/07/29 05:53:09;;;;;;;5.00;3.70;;;13.40;99.90;;;;;;5092941;28;20407;-66
2022/07/29 05:55:35;;;;;;;8.97;3.67;;;13.50;99.90;;;;;;5094022;28;20661;-75
2022/07/29 05:58:01;;;;;;;5.43;4.27;;;13.60;99.90;;;;;;5075637;28;20505;-68
2022/07/29 06:00:26;;;;;;;3.27;2.97;;;13.80;99.90;;;;;;5093572;28;20154;-75
2022/07/29 06:02:52;;;;;;;4.87;3.80;;;14.00;99.90;;;;;;5075308;28;20177;-75
2022/07/29 06:05:18;;;;;;;4.00;3.60;;;14.10;99.90;;;;;;5093754;28;20637;-67
2022/07/29 06:07:44;;;;;;;3.87;3.10;;;14.20;99.90;;;;;;5093547;28;20412;-68
2022/07/29 06:10:10;;;;;;;19.37;11.30;;;14.30;99.90;;;;;;5093119;28;20522;-67
2022/07/29 06:12:36;;;;;;;5.63;3.80;;;14.50;99.90;;;;;;5093326;28;20276;-75
2022/07/29 06:15:02;;;;;;;4.23;3.47;;;14.60;99.90;;;;;;5093454;28;20193;-67
2022/07/29 06:17:28;;;;;;;6.77;3.63;;;14.70;99.90;;;;;;5093595;28;20176;-67
2022/07/29 06:19:54;;;;;;;5.20;3.70;;;14.80;99.90;;;;;;5093560;28;20400;-67
2022/07/29 06:22:20;;;;;;;3.40;3.10;;;14.80;99.90;;;;;;5092814;28;20204;-67
2022/07/29 06:24:45;;;;;;;4.50;3.40;;;14.90;99.90;;;;;;5093218;28;20194;-67
2022/07/29 06:27:11;;;;;;;7.83;4.03;;;15.00;99.90;;;;;;5092779;28;20500;-75
2022/07/29 06:29:37;;;;;;;4.80;2.97;;;15.10;99.90;;;;;;5093453;28;21219;-68
2022/07/29 06:32:04;;;;;;;4.90;3.77;;;15.10;99.90;;;;;;5093152;28;20403;-75
2022/07/29 06:34:29;;;;;;;4.77;3.83;;;15.10;99.90;;;;;;5092702;28;20414;-68
2022/07/29 06:36:55;;;;;;;3.60;3.30;;;15.10;99.90;;;;;;5093171;28;20500;-76
2022/07/29 06:39:21;;;;;;;3.80;3.27;;;15.10;99.90;;;;;;5093212;28;20169;-68
2022/07/29 06:41:49;;;;;;;5.00;3.97;;;15.20;99.90;;;;;;5093160;28;20165;-76
2022/07/29 06:44:15;;;;;;;5.23;3.53;;;15.30;99.90;;;;;;5091783;28;20424;-68
2022/07/29 06:46:41;;;;;;;6.87;4.10;;;15.30;99.90;;;;;;5093048;28;20407;-67
2022/07/29 06:49:07;;;;;;;8.80;3.40;;;15.40;99.90;;;;;;5074907;28;20422;-68
2022/07/29 06:51:33;;;;;;;3.83;3.40;;;15.60;99.90;;;;;;5075320;28;20465;-77
2022/07/29 06:54:00;;;;;;;3.03;2.57;;;15.70;99.90;;;;;;5092356;28;20431;-76
2022/07/29 06:56:26;;;;;;;7.77;3.00;;;15.80;99.90;;;;;;5093063;28;20435;-76
2022/07/29 06:58:52;;;;;;;5.00;2.53;;;16.00;99.90;;;;;;5093144;28;20820;-77
2022/07/29 07:01:19;;;;;;;4.30;3.10;;;16.10;93.10;;;;;;5092658;28;20495;-68
2022/07/29 07:03:45;;;;;;;4.00;3.10;;;16.20;99.90;;;;;;5092077;28;20189;-76
2022/07/29 07:06:11;;;;;;;3.70;2.77;;;16.30;99.90;;;;;;5093129;28;20411;-67
2022/07/29 07:08:37;;;;;;;2.53;2.37;;;16.40;99.90;;;;;;5092964;28;20404;-67
2022/07/29 07:11:03;;;;;;;7.40;2.63;;;16.60;94.50;;;;;;5074660;28;20789;-69
2022/07/29 07:13:34;;;;;;;2.43;2.23;;;16.70;94.30;;;;;;5092383;28;20404;-68
2022/07/29 07:16:00;;;;;;;3.07;2.87;;;16.70;85.00;;;;;;5092987;28;20398;-67
2022/07/29 07:18:27;;;;;;;4.53;2.73;;;16.80;59.60;;;;;;5092289;28;20403;-75
2022/07/29 07:20:53;;;;;;;2.83;2.13;;;16.90;76.90;;;;;;5092944;28;20392;-68
2022/07/29 07:23:19;;;;;;;4.53;2.27;;;17.00;46.60;;;;;;5092068;28;20458;-68
2022/07/29 07:25:45;;;;;;;5.50;2.77;;;17.20;41.60;;;;;;5092728;28;20492;-68
2022/07/29 07:28:13;;;;;;;5.00;2.70;;;17.40;28.30;;;;;;5092979;28;20437;-77
2022/07/29 07:30:48;;;;;;;4.17;2.40;;;17.50;16.40;;;;;;5092694;28;20600;-68
2022/07/29 07:33:14;;;;;;;2.80;2.20;;;17.60;7.20;;;;;;5091986;28;20741;-67
2022/07/29 07:35:41;;;;;;;3.10;2.50;;;17.80;1.00;;;;;;5092457;28;20415;-77
2022/07/29 07:38:07;;;;;;;5.10;2.27;;;17.90;1.00;;;;;;5092405;28;20399;-68
2022/07/29 07:40:33;;;;;;;4.10;1.97;;;18.00;1.00;;;;;;5092732;28;20404;-70
2022/07/29 07:42:59;;;;;;;4.17;2.33;;;18.10;1.00;;;;;;5092196;28;20166;-67
2022/07/29 07:45:25;;;;;;;2.80;1.77;;;18.20;1.00;;;;;;5092388;28;20189;-68
2022/07/29 07:47:51;;;;;;;2.00;1.70;;;18.20;1.00;;;;;;5094788;28;20166;-68
2022/07/29 07:50:19;;;;;;;6.00;2.50;;;18.40;1.00;;;;;;5078053;28;20650;-68
2022/07/29 07:52:54;;;;;;;4.10;2.53;;;18.50;1.00;;;;;;5095749;28;20158;-68
2022/07/29 07:55:20;;;;;;;3.83;2.00;;;18.70;1.00;;;;;;5095293;28;20415;-70
2022/07/29 07:57:47;;;;;;;2.53;2.20;;;18.80;1.00;;;;;;5094956;28;20840;-69
2022/07/29 08:00:14;;;;;;;4.50;2.23;;;19.00;1.00;;;;;;5096435;28;20482;-68
2022/07/29 08:02:42;;;;;;;2.23;2.07;;;19.10;1.00;;;;;;5095565;28;20467;-68
2022/07/29 08:05:08;;;;;;;9.70;2.73;;;19.20;1.00;;;;;;5095995;28;20423;-67
2022/07/29 08:07:34;;;;;;;3.93;1.87;;;19.30;1.00;;;;;;5095975;28;20392;-77
2022/07/29 08:10:03;;;;;;;5.73;2.40;;;19.50;1.00;;;;;;5095661;28;20458;-67
2022/07/29 08:12:29;;;;;;;2.13;1.83;;;19.60;1.00;;;;;;5094824;28;20188;-76
2022/07/29 08:14:55;;;;;;;3.70;2.43;;;19.70;1.00;;;;;;5095911;28;20510;-67
2022/07/29 08:17:21;;;;;;;3.23;2.70;;;19.80;1.00;;;;;;5095870;28;20643;-77
2022/07/29 08:19:48;;;;;;;3.63;2.40;;;19.90;1.00;;;;;;5095738;28;20166;-76
2022/07/29 08:22:14;;;;;;;7.27;2.90;;;20.00;1.00;;;;;;5095251;28;20219;-76
2022/07/29 08:24:43;;;;;;;3.10;2.20;;;20.00;1.00;;;;;;5095657;28;20463;-67
2022/07/29 08:27:12;;;;;;;2.87;2.40;;;20.10;1.00;;;;;;5095749;28;20447;-76
2022/07/29 08:29:38;;;;;;;3.30;2.20;;;20.20;1.00;;;;;;5095599;28;20450;-68
2022/07/29 08:32:05;;;;;;;3.03;2.17;;;20.30;1.00;;;;;;5094788;28;20396;-76
2022/07/29 08:34:31;;;;;;;1.60;1.50;;;20.40;1.00;;;;;;5094904;28;20923;-77
2022/07/29 08:36:57;;;;;;;2.30;1.97;;;20.30;1.00;;;;;;5077556;28;20407;-68
2022/07/29 08:39:24;;;;;;;2.37;2.00;;;20.20;1.00;;;;;;5095554;28;20410;-77
2022/07/29 08:41:51;;;;;;;6.30;2.30;;;20.20;1.00;;;;;;5095409;28;20428;-67
2022/07/29 08:44:21;;;;;;;5.20;2.43;;;20.20;1.00;;;;;;5094844;28;20431;-77
2022/07/29 08:46:48;;;;;;;5.03;2.20;;;20.30;1.00;;;;;;5095375;28;20400;-68
2022/07/29 08:49:15;;;;;;;2.63;2.43;;;20.40;1.00;;;;;;5094672;28;20882;-77
2022/07/29 08:52:01;;;;;;;2.43;2.23;;;20.50;1.00;;;;;;5095151;28;20494;-69
2022/07/29 08:54:28;;;;;;;4.33;2.17;;;20.60;1.00;;;;;;5094396;28;20565;-77
2022/07/29 08:56:55;;;;;;;2.83;2.00;;;20.70;1.00;;;;;;5095344;28;20502;-68
2022/07/29 08:59:24;;;;;;;4.43;2.40;;;20.80;1.00;;;;;;5093963;28;20412;-68
2022/07/29 09:01:53;;;;;;;4.00;1.80;;;20.80;1.00;;;;;;5094831;28;20473;-77
2022/07/29 09:04:22;;;;;;;4.10;1.90;;;20.80;1.00;;;;;;5094554;28;20431;-68
2022/07/29 09:06:52;;;;;;;2.53;1.90;;;20.70;1.00;;;;;;5094228;28;20411;-77
2022/07/29 09:09:19;;;;;;;4.03;2.30;;;20.70;1.00;;;;;;5094866;28;20490;-78
2022/07/29 09:11:45;;;;;;;3.50;2.23;;;20.90;1.00;;;;;;5094819;28;20422;-72
2022/07/29 09:14:14;;;;;;;2.83;2.33;;;21.10;1.00;;;;;;5094067;28;20431;-76
2022/07/29 09:16:51;;;;;;;3.20;2.20;;;21.30;1.00;;;;;;5076690;28;20537;-77
2022/07/29 09:19:25;;;;;;;1.93;1.73;;;21.70;1.00;;;;;;5094685;28;20410;-68
2022/07/29 09:22:00;;;;;;;5.13;3.20;;;21.70;1.00;;;;;;5094645;28;20407;-77
2022/07/29 09:24:41;;;;;;;3.60;2.30;;;21.40;1.00;;;;;;5093618;28;20482;-76
2022/07/29 09:27:22;;;;;;;1.80;1.70;;;21.20;1.00;;;;;;5094629;28;20526;-68
2022/07/29 09:30:12;;;;;;;4.23;2.00;;;21.10;1.00;;;;;;5094466;28;20530;-76
2022/07/29 09:33:00;;;;;;;2.23;2.03;;;20.90;1.00;;;;;;5093788;28;20431;-68
2022/07/29 09:35:28;;;;;;;6.40;2.23;;;20.80;1.00;;;;;;5094541;28;20427;-76
2022/07/29 09:37:53;;;;;;;4.63;2.23;;;20.70;1.00;;;;;;5094337;28;20400;-76
2022/07/29 09:40:25;;;;;;;3.07;2.30;;;20.70;1.00;;;;;;5094293;28;20414;-77
2022/07/29 09:42:57;;;;;;;3.87;1.97;;;20.80;1.00;;;;;;5093506;28;20201;-76
2022/07/29 09:45:33;;;;;;;2.37;2.00;;;21.00;1.00;;;;;;5093734;28;20435;-69
2022/07/29 09:48:12;;;;;;;2.47;2.20;;;21.40;1.00;;;;;;5094186;28;20414;-68
2022/07/29 09:50:43;;;;;;;2.57;2.03;;;21.70;1.00;;;;;;5094033;28;20898;-76
2022/07/29 09:53:09;;;;;;;4.20;2.27;;;21.70;1.00;;;;;;5093462;28;20499;-78
2022/07/29 09:55:51;;;;;;;2.67;1.77;;;21.70;1.00;;;;;;5093980;28;20443;-77
2022/07/29 09:58:22;;;;;;;4.97;2.20;;;21.50;1.00;;;;;;5093985;28;20536;-77
2022/07/29 10:00:50;;;;;;;2.47;2.10;;;21.30;1.00;;;;;;5093301;28;20412;-77
2022/07/29 10:03:17;;;;;;;5.00;2.20;;;21.30;1.00;;;;;;5093158;28;20783;-76
2022/07/29 10:05:44;;;;;;;3.40;1.83;;;21.60;1.00;;;;;;5093785;28;20510;-69
2022/07/29 10:08:12;;;;;;;2.23;2.03;;;21.90;1.00;;;;;;5093739;28;20408;-77
2022/07/29 10:10:43;;;;;;;2.10;1.90;;;22.10;1.00;;;;;;5093245;28;20467;-69
2022/07/29 10:13:13;;;;;;;3.63;1.90;;;22.20;1.00;;;;;;5093120;28;20524;-78
2022/07/29 10:15:44;;;;;;;2.17;1.97;;;22.20;1.00;;;;;;5093670;28;20513;-69
2022/07/29 10:18:17;;;;;;;1.83;1.73;;;22.30;1.00;;;;;;5093717;28;20423;-77
2022/07/29 10:20:43;;;;;;;2.70;2.27;;;22.40;1.00;;;;;;5092733;28;20408;-77
2022/07/29 10:23:09;;;;;;;3.00;1.47;;;22.40;1.00;;;;;;5092871;28;20780;-77
2022/07/29 10:25:35;;;;;;;3.03;2.00;;;22.30;1.00;;;;;;5093546;28;20820;-69
2022/07/29 10:28:01;;;;;;;1.83;1.63;;;22.40;1.00;;;;;;5093396;28;20403;-69
2022/07/29 10:30:27;;;;;;;3.20;2.80;;;22.40;1.00;;;;;;5093389;28;20186;-74
2022/07/29 10:33:14;;;;;;;3.23;1.70;;;22.40;1.00;;;;;;5092858;28;20195;-69
2022/07/29 10:35:59;;;;;;;3.10;2.00;;;22.40;1.00;;;;;;5075287;28;20431;-77
2022/07/29 10:38:45;;;;;;;2.43;2.23;;;22.50;1.00;;;;;;5092911;28;20427;-75
2022/07/29 10:41:29;;;;;;;5.20;1.93;;;22.70;1.00;;;;;;5093381;28;20446;-77
2022/07/29 10:44:05;;;;;;;2.73;1.87;;;22.80;1.00;;;;;;5092503;28;20911;-68
2022/07/29 10:46:40;;;;;;;2.73;1.50;;;22.90;1.00;;;;;;5093195;28;20412;-76
2022/07/29 10:49:18;;;;;;;;;;;;;;;;;;;;;
2022/07/29 10:51:51;;;;;;;3.87;2.33;;;23.10;1.00;;;;;;5093136;28;20394;-69
2022/07/29 10:54:47;;;;;;;2.80;2.20;;;23.00;1.00;;;;;;5091924;28;20419;-68
2022/07/29 10:57:16;;;;;;;3.23;1.93;;;23.10;1.00;;;;;;5075574;28;20827;-77
2022/07/29 11:00:04;;;;;;;4.60;1.93;;;23.40;1.00;;;;;;5093119;28;20388;-69
2022/07/29 11:02:42;;;;;;;5.37;1.73;;;24.00;1.00;;;;;;5091292;28;20497;-77
2022/07/29 11:05:13;;;;;;;2.13;1.80;;;24.60;1.00;;;;;;5092852;28;20446;-77
2022/07/29 11:07:59;;;;;;;1.57;1.27;;;25.00;1.00;;;;;;5093154;28;20392;-69
2022/07/29 11:10:25;;;;;;;2.50;1.87;;;25.20;1.00;;;;;;5092816;28;20486;-75
2022/07/29 11:12:52;;;;;;;5.23;2.87;;;25.10;1.00;;;;;;5092447;28;20808;-77
2022/07/29 11:15:23;;;;;;;3.83;2.17;;;24.60;1.00;;;;;;5092353;28;20506;-68
2022/07/29 11:17:52;;;;;;;2.43;2.20;;;24.20;1.00;;;;;;5092908;28;20529;-68
2022/07/29 11:20:31;;;;;;;2.97;1.77;;;23.90;1.00;;;;;;5093214;28;20729;-69
2022/07/29 11:22:57;;;;;;;7.83;2.07;;;23.80;1.00;;;;;;5094700;28;20395;-69
2022/07/29 11:25:23;;;;;;;2.93;1.70;;;23.50;1.00;;;;;;5096780;28;20451;-77
2022/07/29 11:27:49;;;;;;;2.20;1.90;;;23.50;1.00;;;;;;5097116;28;20437;-74
2022/07/29 11:30:15;;;;;;;2.50;1.63;;;23.70;1.00;;;;;;5096849;28;21039;-77
2022/07/29 11:32:43;;;;;;;4.70;2.40;;;23.40;1.00;;;;;;5095575;28;20795;-77
2022/07/29 11:35:23;;;;;;;2.33;1.60;;;23.40;1.00;;;;;;5096542;28;20426;-69
2022/07/29 11:38:26;;;;;;;2.67;1.93;;;23.60;1.00;;;;;;5096656;28;20399;-76
2022/07/29 11:41:21;;;;;;;2.20;1.83;;;24.00;1.00;;;;;;5096771;28;20934;-76
2022/07/29 11:43:47;;;;;;;3.57;2.30;;;23.70;1.00;;;;;;5095785;28;20826;-69
2022/07/29 11:46:14;;;;;;;2.40;1.80;;;23.10;1.00;;;;;;5096644;28;20406;-76
2022/07/29 11:48:44;;;;;;;1.70;1.60;;;22.80;1.00;;;;;;5096457;28;20392;-66
2022/07/29 11:51:11;;;;;;;2.10;2.00;;;22.60;1.00;;;;;;5095586;28;20459;-68
2022/07/29 11:53:39;;;;;;;3.00;1.87;;;22.70;1.00;;;;;;5095680;28;20431;-69
2022/07/29 11:56:12;;;;;;;1.87;1.77;;;22.90;1.00;;;;;;5096339;28;20973;-76
2022/07/29 11:58:38;;;;;;;3.40;1.77;;;23.70;1.00;;;;;;5096265;28;20396;-76
2022/07/29 12:01:05;;;;;;;3.33;1.80;;;24.80;1.00;;;;;;5096195;28;20396;-69
2022/07/29 12:03:30;;;;;;;2.33;1.93;;;25.80;1.00;;;;;;5077342;28;20422;-68
2022/07/29 12:05:56;;;;;;;2.93;1.60;;;26.80;1.00;;;;;;5096207;28;20399;-76
2022/07/29 12:08:22;;;;;;;2.50;1.50;;;27.60;1.00;;;;;;5096291;28;20161;-76
2022/07/29 12:10:50;;;;;;;1.57;1.40;;;27.80;1.00;;;;;;5077371;28;20197;-76
2022/07/29 12:13:18;;;;;;;3.20;1.80;;;27.40;99.90;;;;;;5095241;28;20474;-76
2022/07/29 12:15:53;;;;;;;1.57;1.27;;;27.00;99.90;;;;;;5095856;28;20465;-70
2022/07/29 12:18:20;;;;;;;2.40;2.17;;;26.90;99.90;;;;;;5096200;28;20391;-68
2022/07/29 12:20:47;;;;;;;2.80;1.80;;;26.50;99.90;;;;;;5095922;28;20512;-75
2022/07/29 12:23:16;;;;;;;2.50;2.17;;;26.10;99.90;;;;;;5095121;28;20801;-75
2022/07/29 12:25:42;;;;;;;2.53;1.70;;;25.10;99.90;;;;;;5095389;28;20435;-69
2022/07/29 12:28:12;;;;;;;6.67;3.30;;;24.50;99.90;;;;;;5095481;28;20780;-68
2022/07/29 12:30:40;;;;;;;6.70;2.00;;;24.00;99.90;;;;;;5077493;28;20468;-76
2022/07/29 12:33:16;;;;;;;3.60;1.83;;;23.60;99.90;;;;;;5094832;28;20399;-76
2022/07/29 12:35:44;;;;;;;2.20;2.00;;;23.20;1.00;;;;;;5077409;28;20514;-70
2022/07/29 12:38:14;;;;;;;1.30;1.20;;;23.00;1.00;;;;;;5077714;28;20503;-76
2022/07/29 12:40:40;;;;;;;2.73;2.47;;;23.20;1.00;;;;;;5077291;28;20408;-68
2022/07/29 12:43:09;;;;;;;5.90;2.20;;;23.10;1.00;;;;;;5094811;28;20826;-68
2022/07/29 12:45:36;;;;;;;3.00;2.30;;;23.00;1.00;;;;;;5094718;28;20927;-68
2022/07/29 12:48:02;;;;;;;5.73;2.07;;;22.80;1.00;;;;;;5095340;28;20396;-67
2022/07/29 12:50:28;;;;;;;2.17;1.70;;;22.70;1.00;;;;;;5095279;28;20479;-75
2022/07/29 12:53:17;;;;;;;2.33;2.10;;;22.40;1.00;;;;;;5094764;28;20403;-68
2022/07/29 12:55:48;;;;;;;5.20;2.67;;;22.40;1.00;;;;;;5095164;28;20463;-69
2022/07/29 12:58:44;;;;;;;3.77;2.80;;;22.60;1.00;;;;;;5077124;28;20412;-76
2022/07/29 13:01:16;;;;;;;3.37;2.77;;;22.50;1.00;;;;;;5076411;28;20482;-71
2022/07/29 13:03:53;;;;;;;3.57;2.40;;;22.40;1.00;;;;;;5094268;28;20494;-70
2022/07/29 13:06:42;;;;;;;2.37;2.10;;;22.60;1.00;;;;;;5076932;28;20417;-76
2022/07/29 13:09:10;;;;;;;3.50;2.30;;;22.70;1.00;;;;;;5094892;28;20415;-69